createdAt,value
2017-09-19T00:02:20.230Z,83.70
2017-09-19T00:04:54.745Z,83.20
2017-09-19T00:07:29.325Z,83.30
2017-09-19T00:10:03.937Z,82.80
2017-09-19T00:12:38.502Z,83.10
2017-09-19T00:15:12.244Z,83.10
2017-09-19T00:17:46.009Z,82.90
2017-09-19T00:20:20.612Z,82.50
2017-09-19T00:22:54.427Z,82.50
2017-09-19T00:25:28.291Z,82.60
2017-09-19T00:28:03.056Z,82.40
2017-09-19T00:30:36.928Z,82.40
2017-09-19T00:33:10.783Z,82.70
2017-09-19T00:35:44.595Z,82.70
2017-09-19T00:38:19.313Z,82.70
2017-09-19T00:40:53.158Z,82.70
2017-09-19T00:43:26.936Z,82.20
2017-09-19T00:46:00.686Z,82.80
2017-09-19T00:48:34.561Z,82.80
2017-09-19T00:51:09.166Z,82.40
2017-09-19T00:53:43.676Z,82.40
2017-09-19T00:56:17.459Z,82.40
2017-09-19T00:58:51.224Z,82.00
2017-09-19T01:01:25.682Z,81.90
2017-09-19T01:03:59.396Z,81.90
2017-09-19T01:06:33.217Z,82.00
2017-09-19T01:09:07.058Z,82.10
2017-09-19T01:14:21.788Z,82.50
2017-09-19T01:16:55.620Z,82.30
2017-09-19T01:19:29.308Z,82.00
2017-09-19T01:22:03.157Z,82.70
2017-09-19T01:24:37.234Z,82.70
2017-09-19T01:27:11.723Z,82.00
2017-09-19T01:29:46.398Z,81.80
2017-09-19T01:32:20.198Z,81.80
2017-09-19T01:34:53.981Z,82.00
2017-09-19T01:37:27.784Z,82.00
2017-09-19T01:40:01.644Z,82.10
2017-09-19T01:42:36.206Z,82.30
2017-09-19T01:45:09.954Z,82.30
2017-09-19T01:47:43.760Z,82.30
2017-09-19T01:50:17.589Z,81.90
2017-09-19T01:52:52.175Z,82.00
2017-09-19T01:55:26.710Z,82.80
2017-09-19T01:58:01.424Z,82.30
2017-09-19T02:00:35.158Z,82.30
2017-09-19T02:03:08.833Z,82.30
2017-09-19T02:05:43.444Z,83.00
2017-09-19T02:08:17.215Z,83.00
2017-09-19T02:10:50.966Z,83.30
2017-09-19T02:13:24.799Z,83.30
2017-09-19T02:15:58.510Z,83.60
2017-09-19T02:18:32.388Z,83.40
2017-09-19T02:21:06.248Z,83.40
2017-09-19T02:23:40.902Z,83.10
2017-09-19T02:26:14.784Z,83.10
2017-09-19T02:28:48.554Z,82.50
2017-09-19T02:31:22.378Z,83.10
2017-09-19T02:33:56.825Z,83.00
2017-09-19T02:36:30.583Z,82.90
2017-09-19T02:39:04.503Z,83.00
2017-09-19T02:41:39.090Z,82.90
2017-09-19T02:44:12.748Z,82.80
2017-09-19T02:46:47.387Z,83.10
2017-09-19T02:49:21.302Z,83.20
2017-09-19T02:51:55.759Z,83.30
2017-09-19T02:54:29.464Z,83.30
2017-09-19T02:57:03.296Z,83.00
2017-09-19T02:59:37.136Z,83.00
2017-09-19T03:02:10.965Z,83.20
2017-09-19T03:04:44.836Z,83.10
2017-09-19T03:07:18.775Z,82.80
2017-09-19T03:09:52.691Z,82.70
2017-09-19T03:12:27.235Z,83.40
2017-09-19T03:15:01.154Z,83.40
2017-09-19T03:17:34.943Z,83.10
2017-09-19T03:20:09.543Z,82.20
2017-09-19T03:22:43.265Z,82.30
2017-09-19T03:25:17.056Z,82.10
2017-09-19T03:27:51.688Z,82.00
2017-09-19T03:30:25.362Z,82.00
2017-09-19T03:32:59.248Z,82.20
2017-09-19T03:35:33.176Z,82.30
2017-09-19T03:38:07.019Z,82.60
2017-09-19T03:40:40.805Z,82.80
2017-09-19T03:43:14.508Z,83.10
2017-09-19T03:45:49.031Z,83.10
2017-09-19T03:48:23.232Z,83.10
2017-09-19T03:50:57.064Z,83.10
2017-09-19T03:53:30.945Z,83.10
2017-09-19T03:56:04.711Z,83.90
2017-09-19T03:58:38.532Z,83.50
2017-09-19T04:01:12.302Z,83.60
2017-09-19T04:03:46.136Z,83.70
2017-09-19T04:06:19.862Z,84.10
2017-09-19T04:08:53.707Z,84.30
2017-09-19T04:11:28.242Z,84.80
2017-09-19T04:14:02.142Z,84.80
2017-09-19T04:16:35.918Z,84.60
2017-09-19T04:19:09.856Z,84.60
2017-09-19T04:21:43.581Z,84.40
2017-09-19T04:24:18.148Z,84.50
2017-09-19T04:26:51.994Z,84.40
2017-09-19T04:29:25.838Z,84.40
2017-09-19T04:31:59.706Z,84.80
2017-09-19T04:34:33.546Z,85.00
2017-09-19T04:37:07.338Z,84.90
2017-09-19T04:39:41.187Z,85.10
2017-09-19T04:42:15.679Z,85.20
2017-09-19T04:44:50.183Z,85.20
2017-09-19T04:47:23.983Z,84.40
2017-09-19T04:49:57.762Z,84.20
2017-09-19T04:52:32.378Z,84.20
2017-09-19T04:55:06.158Z,84.10
2017-09-19T04:57:40.016Z,83.20
2017-09-19T05:00:13.766Z,83.90
2017-09-19T05:02:47.511Z,84.30
2017-09-19T05:05:21.361Z,84.90
2017-09-19T05:07:55.155Z,84.50
2017-09-19T05:10:29.052Z,84.50
2017-09-19T05:13:02.830Z,84.40
2017-09-19T05:15:37.392Z,84.40
2017-09-19T05:18:11.150Z,84.00
2017-09-19T05:20:44.941Z,84.10
2017-09-19T05:23:19.499Z,83.80
2017-09-19T05:25:53.249Z,83.90
2017-09-19T05:28:27.050Z,83.80
2017-09-19T05:31:00.899Z,83.80
2017-09-19T05:33:34.684Z,83.20
2017-09-19T05:36:09.286Z,83.30
2017-09-19T05:38:43.772Z,83.00
2017-09-19T05:41:17.585Z,83.00
2017-09-19T05:43:52.113Z,81.50
2017-09-19T05:46:26.050Z,81.50
2017-09-19T05:49:01.362Z,80.50
2017-09-19T05:51:35.263Z,80.40
2017-09-19T05:54:09.037Z,78.00
2017-09-19T05:56:42.832Z,76.00
2017-09-19T05:59:17.195Z,74.20
2017-09-19T06:01:50.890Z,74.20
2017-09-19T06:04:24.606Z,75.60
2017-09-19T06:06:59.118Z,76.50
2017-09-19T06:09:33.772Z,77.20
2017-09-19T06:12:07.450Z,77.90
2017-09-19T06:14:41.230Z,78.30
2017-09-19T06:17:15.036Z,78.80
2017-09-19T06:19:48.800Z,79.20
2017-09-19T06:22:22.589Z,78.80
2017-09-19T06:24:56.428Z,79.60
2017-09-19T06:27:30.214Z,80.00
2017-09-19T06:30:04.848Z,79.40
2017-09-19T06:32:38.621Z,79.50
2017-09-19T06:35:12.328Z,78.90
2017-09-19T06:37:46.080Z,79.10
2017-09-19T06:40:19.969Z,78.80
2017-09-19T06:42:53.751Z,79.00
2017-09-19T06:45:27.584Z,79.20
2017-09-19T06:48:01.370Z,77.30
2017-09-19T06:50:35.190Z,77.70
2017-09-19T06:53:08.981Z,79.20
2017-09-19T06:55:42.760Z,79.00
2017-09-19T06:58:16.728Z,79.60
2017-09-19T07:00:51.149Z,80.20
2017-09-19T07:03:24.862Z,80.00
2017-09-19T07:05:58.592Z,79.20
2017-09-19T07:08:32.479Z,78.90
2017-09-19T07:11:06.252Z,79.80
2017-09-19T07:13:40.198Z,79.80
2017-09-19T07:16:14.740Z,78.80
2017-09-19T07:18:48.575Z,78.80
2017-09-19T07:21:22.286Z,79.40
2017-09-19T07:23:56.133Z,80.00
2017-09-19T07:26:29.956Z,79.80
2017-09-19T07:29:04.757Z,80.50
2017-09-19T07:31:39.426Z,79.60
2017-09-19T07:34:13.239Z,79.50
2017-09-19T07:36:47.761Z,79.40
2017-09-19T07:39:21.607Z,79.20
2017-09-19T07:41:55.391Z,80.40
2017-09-19T07:44:29.208Z,80.60
2017-09-19T07:47:03.697Z,79.40
2017-09-19T07:49:38.253Z,78.70
2017-09-19T07:52:12.178Z,78.70
2017-09-19T07:54:46.783Z,79.30
2017-09-19T07:57:20.610Z,79.30
2017-09-19T07:59:54.412Z,79.30
2017-09-19T08:02:28.981Z,77.50
2017-09-19T08:05:02.762Z,78.10
2017-09-19T08:07:37.323Z,79.40
2017-09-19T08:10:11.020Z,79.40
2017-09-19T08:12:44.820Z,79.60
2017-09-19T08:15:18.798Z,78.10
2017-09-19T08:17:53.359Z,78.30
2017-09-19T08:20:27.078Z,77.60
2017-09-19T08:23:00.874Z,77.10
2017-09-19T08:25:35.543Z,77.50
2017-09-19T08:28:09.325Z,77.40
2017-09-19T08:30:43.213Z,77.60
2017-09-19T08:33:17.053Z,77.50
2017-09-19T08:35:50.933Z,77.00
2017-09-19T08:38:24.792Z,77.60
2017-09-19T08:40:58.602Z,77.50
2017-09-19T08:43:32.377Z,77.30
2017-09-19T08:46:06.173Z,77.60
2017-09-19T08:48:39.988Z,77.70
2017-09-19T08:51:13.803Z,76.60
2017-09-19T08:53:47.684Z,77.30
2017-09-19T08:56:21.546Z,77.60
2017-09-19T08:58:55.312Z,76.60
2017-09-19T09:01:29.112Z,76.80
2017-09-19T09:04:03.718Z,77.30
2017-09-19T09:06:37.476Z,77.20
2017-09-19T09:09:11.260Z,76.90
2017-09-19T09:11:45.102Z,76.50
2017-09-19T09:14:18.852Z,77.10
2017-09-19T09:16:53.495Z,76.70
2017-09-19T09:19:27.162Z,76.70
2017-09-19T09:22:00.925Z,76.90
2017-09-19T09:24:34.705Z,77.30
2017-09-19T09:27:09.306Z,77.90
2017-09-19T09:29:43.297Z,77.00
2017-09-19T09:32:17.841Z,77.60
2017-09-19T09:34:52.458Z,76.50
2017-09-19T09:37:26.170Z,76.40
2017-09-19T09:40:00.672Z,76.00
2017-09-19T09:42:34.475Z,75.30
2017-09-19T09:45:08.058Z,74.20
2017-09-19T09:47:41.828Z,74.60
2017-09-19T09:50:15.630Z,73.80
2017-09-19T09:52:49.557Z,72.80
2017-09-19T09:55:23.357Z,73.60
2017-09-19T09:57:57.126Z,74.10
2017-09-19T10:00:30.832Z,73.50
2017-09-19T10:03:04.671Z,73.50
2017-09-19T10:05:38.416Z,73.50
2017-09-19T10:08:12.338Z,72.90
2017-09-19T10:10:46.227Z,73.30
2017-09-19T10:13:20.078Z,72.90
2017-09-19T10:15:54.065Z,71.80
2017-09-19T10:18:27.892Z,71.90
2017-09-19T10:21:02.842Z,70.40
2017-09-19T10:23:37.376Z,69.70
2017-09-19T10:26:11.954Z,69.70
2017-09-19T10:28:46.661Z,68.00
2017-09-19T10:31:20.474Z,68.00
2017-09-19T10:33:55.069Z,67.40
2017-09-19T10:36:28.734Z,67.40
2017-09-19T10:39:02.572Z,67.40
2017-09-19T10:41:36.412Z,66.90
2017-09-19T10:44:10.376Z,66.80
2017-09-19T10:46:44.152Z,67.60
2017-09-19T10:49:17.856Z,66.60
2017-09-19T10:51:51.762Z,67.50
2017-09-19T10:54:26.396Z,67.50
2017-09-19T10:57:00.919Z,65.30
2017-09-19T10:59:34.610Z,65.30
2017-09-19T11:02:09.446Z,66.00
2017-09-19T11:04:43.244Z,67.00
2017-09-19T11:07:17.656Z,66.70
2017-09-19T11:09:51.729Z,66.60
2017-09-19T11:12:25.570Z,66.70
2017-09-19T11:15:00.126Z,66.60
2017-09-19T11:17:34.129Z,66.60
2017-09-19T11:20:08.335Z,66.50
2017-09-19T11:22:42.992Z,66.80
2017-09-19T11:25:16.701Z,66.80
2017-09-19T11:27:50.502Z,64.40
2017-09-19T11:30:25.890Z,65.90
2017-09-19T11:32:59.611Z,65.20
2017-09-19T11:35:34.357Z,65.20
2017-09-19T11:38:08.117Z,65.80
2017-09-19T11:40:41.959Z,66.00
2017-09-19T11:43:15.798Z,64.50
2017-09-19T11:45:50.399Z,64.00
2017-09-19T11:48:24.192Z,64.00
2017-09-19T11:50:58.823Z,65.40
2017-09-19T11:53:32.527Z,65.40
2017-09-19T11:56:06.258Z,66.20
2017-09-19T11:58:40.083Z,66.10
2017-09-19T12:01:14.723Z,67.70
2017-09-19T12:03:48.497Z,67.70
2017-09-19T12:06:22.449Z,68.10
2017-09-19T12:08:56.314Z,66.90
2017-09-19T12:11:30.173Z,67.10
2017-09-19T12:14:03.881Z,67.90
2017-09-19T12:16:39.356Z,68.50
2017-09-19T12:19:13.861Z,67.60
2017-09-19T12:21:47.703Z,67.60
2017-09-19T12:24:21.508Z,67.40
2017-09-19T12:26:56.172Z,67.90
2017-09-19T12:29:29.829Z,67.90
2017-09-19T12:32:04.362Z,69.10
2017-09-19T12:34:39.338Z,69.10
2017-09-19T12:37:14.218Z,69.60
2017-09-19T12:39:47.839Z,69.60
2017-09-19T12:42:22.430Z,70.40
2017-09-19T12:44:56.829Z,70.10
2017-09-19T12:47:31.376Z,70.80
2017-09-19T12:50:05.243Z,70.20
2017-09-19T12:52:39.108Z,70.80
2017-09-19T12:55:12.792Z,71.30
2017-09-19T12:57:47.086Z,70.80
2017-09-19T13:00:20.787Z,71.20
2017-09-19T13:02:54.625Z,71.70
2017-09-19T13:05:28.579Z,71.50
2017-09-19T13:08:02.418Z,71.30
2017-09-19T13:10:36.274Z,71.90
2017-09-19T13:13:10.108Z,71.10
2017-09-19T13:15:43.899Z,71.50
2017-09-19T13:18:17.904Z,71.50
2017-09-19T13:20:51.627Z,71.70
2017-09-19T13:23:25.406Z,71.60
2017-09-19T13:25:59.636Z,71.20
2017-09-19T13:28:33.360Z,70.80
2017-09-19T13:31:19.069Z,70.70
2017-09-19T13:33:52.866Z,71.00
2017-09-19T13:36:26.688Z,70.30
2017-09-19T13:39:00.643Z,70.30
2017-09-19T13:41:34.465Z,69.30
2017-09-19T13:44:08.257Z,69.40
2017-09-19T13:46:42.019Z,67.10
2017-09-19T13:49:15.856Z,67.20
2017-09-19T13:51:49.702Z,67.30
2017-09-19T13:54:23.600Z,66.90
2017-09-19T13:56:57.978Z,67.10
2017-09-19T13:59:31.792Z,67.00
2017-09-19T14:02:05.578Z,67.80
2017-09-19T14:04:40.198Z,66.80
2017-09-19T14:07:14.074Z,66.80
2017-09-19T14:09:47.848Z,66.70
2017-09-19T14:12:21.671Z,66.00
2017-09-19T14:14:55.451Z,67.40
2017-09-19T14:17:29.183Z,67.50
2017-09-19T14:20:03.517Z,67.80
2017-09-19T14:22:38.662Z,68.10
2017-09-19T14:25:13.450Z,68.80
2017-09-19T14:27:47.104Z,69.20
2017-09-19T14:30:21.647Z,69.60
2017-09-19T14:32:55.606Z,69.90
2017-09-19T14:35:29.481Z,69.80
2017-09-19T14:38:03.252Z,69.50
2017-09-19T14:40:37.102Z,69.70
2017-09-19T14:43:10.848Z,68.80
2017-09-19T14:45:44.606Z,70.40
2017-09-19T14:48:19.077Z,70.60
2017-09-19T14:50:52.760Z,70.60
2017-09-19T14:53:26.567Z,70.40
2017-09-19T14:56:00.414Z,70.30
2017-09-19T14:58:34.217Z,70.00
2017-09-19T15:01:07.997Z,70.00
2017-09-19T15:03:42.198Z,70.20
2017-09-19T15:06:15.942Z,69.10
2017-09-19T15:08:50.592Z,69.30
2017-09-19T15:11:24.275Z,69.40
2017-09-19T15:13:58.049Z,69.00
2017-09-19T15:16:33.387Z,69.50
2017-09-19T15:19:07.299Z,69.50
2017-09-19T15:21:41.173Z,69.20
2017-09-19T15:24:15.073Z,69.60
2017-09-19T15:26:49.575Z,70.40
2017-09-19T15:29:23.365Z,70.30
2017-09-19T15:31:57.219Z,70.70
2017-09-19T15:34:30.980Z,70.80
2017-09-19T15:37:04.797Z,70.60
2017-09-19T15:39:38.566Z,70.60
2017-09-19T15:42:13.027Z,71.10
2017-09-19T15:44:46.953Z,71.40
2017-09-19T15:47:21.728Z,71.70
2017-09-19T15:49:56.203Z,72.00
2017-09-19T15:52:29.938Z,72.20
2017-09-19T15:55:04.476Z,72.00
2017-09-19T15:57:38.262Z,72.00
2017-09-19T16:00:12.810Z,72.40
2017-09-19T16:02:46.519Z,72.40
2017-09-19T16:05:20.946Z,73.00
2017-09-19T16:07:54.700Z,73.00
2017-09-19T16:10:28.422Z,73.80
2017-09-19T16:13:03.983Z,73.60
2017-09-19T16:15:37.747Z,73.60
2017-09-19T16:18:19.043Z,74.30
2017-09-19T16:20:52.798Z,75.10
2017-09-19T16:23:26.719Z,74.20
2017-09-19T16:26:00.541Z,74.50
2017-09-19T16:28:35.055Z,75.40
2017-09-19T16:31:08.883Z,75.30
2017-09-19T16:33:42.739Z,76.20
2017-09-19T16:36:16.584Z,76.00
2017-09-19T16:38:50.393Z,76.10
2017-09-19T16:41:24.093Z,76.40
2017-09-19T16:43:57.910Z,76.70
2017-09-19T16:46:31.697Z,76.40
2017-09-19T16:49:05.568Z,76.60
2017-09-19T16:51:39.289Z,76.50
2017-09-19T16:54:13.096Z,76.90
2017-09-19T16:56:46.916Z,77.20
2017-09-19T16:59:20.795Z,77.20
2017-09-19T17:01:54.511Z,77.60
2017-09-19T17:04:28.321Z,77.80
2017-09-19T17:07:02.048Z,77.80
2017-09-19T17:09:35.856Z,77.90
2017-09-19T17:12:09.953Z,78.00
2017-09-19T17:14:44.588Z,78.00
2017-09-19T17:17:19.310Z,77.70
2017-09-19T17:19:53.150Z,77.70
2017-09-19T17:22:26.950Z,77.70
2017-09-19T17:25:01.545Z,78.10
2017-09-19T17:27:35.472Z,78.00
2017-09-19T17:30:11.074Z,78.70
2017-09-19T17:32:44.864Z,78.80
2017-09-19T17:35:18.654Z,78.40
2017-09-19T17:37:52.507Z,78.20
2017-09-19T17:40:26.938Z,78.20
2017-09-19T17:43:00.927Z,78.20
2017-09-19T17:45:34.710Z,78.30
2017-09-19T17:48:08.491Z,78.50
2017-09-19T17:50:42.305Z,78.40
2017-09-19T17:53:16.116Z,77.90
2017-09-19T17:55:49.927Z,78.20
2017-09-19T17:58:23.679Z,78.40
2017-09-19T18:00:57.471Z,79.00
2017-09-19T18:03:32.004Z,79.20
2017-09-19T18:06:05.703Z,79.10
2017-09-19T18:08:39.510Z,79.00
2017-09-19T18:11:13.324Z,78.50
2017-09-19T18:13:47.037Z,78.90
2017-09-19T18:16:20.776Z,79.30
2017-09-19T18:18:54.650Z,78.90
2017-09-19T18:21:28.470Z,78.90
2017-09-19T18:24:03.058Z,78.80
2017-09-19T18:26:36.907Z,78.80
2017-09-19T18:29:10.705Z,78.60
2017-09-19T18:31:44.670Z,79.10
2017-09-19T18:34:19.482Z,79.20
2017-09-19T18:36:53.944Z,78.50
2017-09-19T18:39:27.782Z,78.40
2017-09-19T18:42:01.552Z,78.90
2017-09-19T18:44:35.299Z,79.00
2017-09-19T18:47:09.294Z,79.00
2017-09-19T18:49:43.160Z,79.00
2017-09-19T18:52:17.138Z,79.60
2017-09-19T18:54:51.601Z,79.00
2017-09-19T18:57:26.150Z,78.80
2017-09-19T19:00:00.098Z,78.70
2017-09-19T19:02:33.950Z,78.00
2017-09-19T19:05:07.759Z,78.90
2017-09-19T19:07:41.596Z,78.50
2017-09-19T19:10:15.333Z,78.30
2017-09-19T19:12:49.120Z,78.00
2017-09-19T19:15:23.668Z,78.30
2017-09-19T19:17:57.548Z,78.30
2017-09-19T19:20:31.321Z,78.80
2017-09-19T19:23:05.206Z,78.70
2017-09-19T19:25:39.075Z,77.80
2017-09-19T19:28:12.881Z,77.70
2017-09-19T19:30:46.708Z,77.50
2017-09-19T19:33:21.277Z,78.00
2017-09-19T19:35:55.857Z,78.00
2017-09-19T19:38:30.448Z,78.00
2017-09-19T19:41:04.642Z,77.80
2017-09-19T19:43:38.489Z,77.00
2017-09-19T19:46:12.948Z,77.20
2017-09-19T19:48:47.371Z,77.30
2017-09-19T19:51:21.370Z,77.00
2017-09-19T19:53:55.825Z,76.90
2017-09-19T19:56:29.852Z,76.90
2017-09-19T19:59:03.800Z,76.60
2017-09-19T20:01:37.550Z,76.40
2017-09-19T20:04:11.285Z,77.40
2017-09-19T20:06:45.125Z,77.70
2017-09-19T20:09:19.507Z,77.80
2017-09-19T20:11:53.972Z,77.90
2017-09-19T20:14:27.800Z,77.90
2017-09-19T20:17:01.622Z,78.00
2017-09-19T20:19:35.437Z,77.50
2017-09-19T20:22:09.231Z,77.10
2017-09-19T20:24:43.037Z,77.00
2017-09-19T20:27:16.822Z,76.80
2017-09-19T20:29:50.557Z,76.50
2017-09-19T20:32:25.047Z,77.00
2017-09-19T20:34:59.688Z,77.00
2017-09-19T20:37:33.453Z,77.00
2017-09-19T20:40:07.241Z,77.00
2017-09-19T20:42:41.193Z,77.70
2017-09-19T20:45:15.182Z,78.20
2017-09-19T20:47:48.828Z,77.80
2017-09-19T20:50:23.328Z,77.30
2017-09-19T20:52:57.111Z,77.20
2017-09-19T20:55:30.880Z,77.80
2017-09-19T20:58:04.675Z,78.20
2017-09-19T21:00:38.571Z,77.90
2017-09-19T21:03:18.049Z,77.30
2017-09-19T21:05:58.356Z,77.30
2017-09-19T21:08:38.034Z,77.30
2017-09-19T21:11:17.629Z,78.10
2017-09-19T21:13:57.246Z,78.00
2017-09-19T21:16:36.733Z,77.40
2017-09-19T21:19:16.812Z,77.50
2017-09-19T21:21:50.697Z,77.50
2017-09-19T21:24:25.040Z,77.50
2017-09-19T21:26:58.802Z,77.50
2017-09-19T21:29:32.590Z,78.10
2017-09-19T21:32:06.480Z,78.40
2017-09-19T21:34:41.004Z,78.60
2017-09-19T21:37:14.894Z,78.60
2017-09-19T21:39:48.658Z,79.10
2017-09-19T21:42:22.503Z,79.30
2017-09-19T21:44:56.268Z,79.30
2017-09-19T21:47:29.962Z,79.20
2017-09-19T21:50:03.734Z,79.20
2017-09-19T21:52:37.520Z,80.10
2017-09-19T21:55:11.381Z,80.40
2017-09-19T21:57:45.174Z,81.70
2017-09-19T22:00:19.010Z,81.30
2017-09-19T22:02:52.800Z,81.70
2017-09-19T22:05:26.626Z,81.60
2017-09-19T22:08:01.137Z,82.40
2017-09-19T22:10:34.941Z,82.30
2017-09-19T22:13:08.746Z,82.60
2017-09-19T22:15:42.526Z,82.90
2017-09-19T22:18:16.406Z,83.40
2017-09-19T22:20:50.185Z,83.10
2017-09-19T22:23:23.897Z,83.10
2017-09-19T22:25:57.783Z,83.40
2017-09-19T22:28:31.622Z,83.50
2017-09-19T22:31:05.362Z,83.60
2017-09-19T22:33:39.259Z,83.20
2017-09-19T22:36:13.081Z,82.80
2017-09-19T22:38:47.546Z,83.00
2017-09-19T22:41:21.213Z,83.00
2017-09-19T22:43:54.986Z,83.10
2017-09-19T22:46:28.719Z,82.80
2017-09-19T22:49:02.602Z,82.60
2017-09-19T22:51:37.151Z,82.90
2017-09-19T22:54:10.881Z,82.90
2017-09-19T22:56:44.557Z,82.60
2017-09-19T22:59:18.399Z,82.60
2017-09-19T23:01:53.352Z,82.30
2017-09-19T23:04:27.116Z,82.30
2017-09-19T23:07:00.833Z,81.90
2017-09-19T23:09:34.654Z,82.30
2017-09-19T23:12:08.406Z,82.60
2017-09-19T23:14:42.235Z,82.90
2017-09-19T23:17:15.895Z,82.90
2017-09-19T23:19:50.584Z,82.20
2017-09-19T23:22:24.376Z,82.20
2017-09-19T23:24:58.989Z,82.00
2017-09-19T23:27:32.783Z,81.80
2017-09-19T23:30:06.670Z,81.90
2017-09-19T23:32:40.453Z,82.20
2017-09-19T23:35:14.885Z,82.40
2017-09-19T23:37:49.465Z,82.70
2017-09-19T23:40:23.315Z,82.60
2017-09-19T23:42:57.125Z,82.30
2017-09-19T23:45:30.904Z,82.70
2017-09-19T23:48:05.501Z,81.70
2017-09-19T23:50:40.029Z,81.70
2017-09-19T23:53:13.794Z,81.70
2017-09-19T23:55:48.376Z,81.60
2017-09-19T23:58:22.028Z,81.60
